createdAt,value
2022-10-17T00:02:05.796Z,17.20
2022-10-17T00:04:56.873Z,17.20
2022-10-17T00:07:48.304Z,17.10
2022-10-17T00:10:40.228Z,17.10
2022-10-17T00:16:27.532Z,17.20
2022-10-17T00:19:18.726Z,17.10
2022-10-17T00:22:09.626Z,17.10
2022-10-17T00:25:00.840Z,17.10
2022-10-17T00:27:51.781Z,17.10
2022-10-17T00:30:42.941Z,17.00
2022-10-17T00:33:35.570Z,17.00
2022-10-17T00:36:27.919Z,17.10
2022-10-17T00:39:18.995Z,17.00
2022-10-17T00:42:13.604Z,17.00
2022-10-17T00:45:10.806Z,17.10
2022-10-17T00:48:05.039Z,17.10
2022-10-17T00:50:56.311Z,17.10
2022-10-17T00:53:49.890Z,17.10
2022-10-17T00:56:41.477Z,17.00
2022-10-17T00:59:34.960Z,17.00
2022-10-17T01:02:26.977Z,16.90
2022-10-17T01:05:19.841Z,16.90
2022-10-17T01:08:12.322Z,16.80
2022-10-17T01:11:07.405Z,16.90
2022-10-17T01:14:01.813Z,16.90
2022-10-17T01:16:55.689Z,16.90
2022-10-17T01:20:02.959Z,16.80
2022-10-17T01:22:56.835Z,16.80
2022-10-17T01:25:53.400Z,16.70
2022-10-17T01:28:58.580Z,16.60
2022-10-17T01:31:52.852Z,16.70
2022-10-17T01:34:48.923Z,16.70
2022-10-17T01:37:44.092Z,16.60
2022-10-17T01:40:38.942Z,16.60
2022-10-17T01:43:33.250Z,16.50
2022-10-17T01:46:28.604Z,16.40
2022-10-17T01:49:22.998Z,16.40
2022-10-17T01:52:19.088Z,16.40
2022-10-17T01:55:14.478Z,16.40
2022-10-17T01:58:08.614Z,16.40
2022-10-17T02:01:02.650Z,16.40
2022-10-17T02:03:57.628Z,16.30
2022-10-17T02:06:48.700Z,16.30
2022-10-17T02:09:40.625Z,16.20
2022-10-17T02:12:38.813Z,16.30
2022-10-17T02:16:00.720Z,16.30
2022-10-17T02:19:05.922Z,16.30
2022-10-17T02:22:01.268Z,16.20
2022-10-17T02:24:56.095Z,16.10
2022-10-17T02:27:50.825Z,16.10
2022-10-17T02:30:45.550Z,16.20
2022-10-17T02:33:40.191Z,16.20
2022-10-17T02:36:34.920Z,16.20
2022-10-17T02:39:27.548Z,16.10
2022-10-17T02:42:21.428Z,16.10
2022-10-17T02:45:14.739Z,16.00
2022-10-17T02:48:08.981Z,15.90
2022-10-17T02:51:04.987Z,15.90
2022-10-17T02:53:59.350Z,15.80
2022-10-17T02:56:54.716Z,15.70
2022-10-17T02:59:46.984Z,15.60
2022-10-17T03:02:46.697Z,15.80
2022-10-17T03:05:38.204Z,15.80
2022-10-17T03:08:29.394Z,15.90
2022-10-17T03:11:20.735Z,15.80
2022-10-17T03:14:12.298Z,15.70
2022-10-17T03:17:04.236Z,15.70
2022-10-17T03:19:56.590Z,15.60
2022-10-17T03:22:48.661Z,15.70
2022-10-17T03:25:40.274Z,15.60
2022-10-17T03:28:31.622Z,15.60
2022-10-17T03:31:22.965Z,15.60
2022-10-17T03:34:16.213Z,15.50
2022-10-17T03:37:08.046Z,15.60
2022-10-17T03:40:00.341Z,15.50
2022-10-17T03:42:51.675Z,15.50
2022-10-17T03:45:42.869Z,15.50
2022-10-17T03:48:35.009Z,15.50
2022-10-17T03:51:27.869Z,15.50
2022-10-17T03:54:20.825Z,15.50
2022-10-17T03:57:12.114Z,15.50
2022-10-17T04:00:03.609Z,15.50
2022-10-17T04:02:56.495Z,15.50
2022-10-17T04:05:49.454Z,15.50
2022-10-17T04:08:42.717Z,15.50
2022-10-17T04:11:38.299Z,15.50
2022-10-17T04:14:29.323Z,15.40
2022-10-17T04:17:20.914Z,15.40
2022-10-17T04:20:13.905Z,15.40
2022-10-17T04:23:05.416Z,15.40
2022-10-17T04:25:59.232Z,15.30
2022-10-17T04:28:51.411Z,15.30
2022-10-17T04:31:42.756Z,15.30
2022-10-17T04:34:45.323Z,15.20
2022-10-17T04:37:36.608Z,15.10
2022-10-17T04:40:29.502Z,15.10
2022-10-17T04:43:21.133Z,15.00
2022-10-17T04:46:15.796Z,15.00
2022-10-17T04:49:08.570Z,15.00
2022-10-17T04:52:01.362Z,15.00
2022-10-17T04:54:54.319Z,15.00
2022-10-17T04:57:45.910Z,15.00
2022-10-17T05:00:39.201Z,15.00
2022-10-17T05:03:31.792Z,14.90
2022-10-17T05:06:25.296Z,14.90
2022-10-17T05:09:18.138Z,15.10
2022-10-17T05:12:10.492Z,15.10
2022-10-17T05:15:03.546Z,15.10
2022-10-17T05:17:58.535Z,15.00
2022-10-17T05:20:50.323Z,15.10
2022-10-17T05:23:42.146Z,15.00
2022-10-17T05:26:33.631Z,15.00
2022-10-17T05:29:25.473Z,15.10
2022-10-17T05:32:18.761Z,15.10
2022-10-17T05:35:10.555Z,15.20
2022-10-17T05:38:02.200Z,15.10
2022-10-17T05:40:53.783Z,15.10
2022-10-17T05:43:44.815Z,15.10
2022-10-17T05:46:37.313Z,15.10
2022-10-17T05:49:46.050Z,15.10
2022-10-17T05:52:21.101Z,15.10
2022-10-17T05:55:17.581Z,15.00
2022-10-17T05:58:17.714Z,15.00
2022-10-17T06:01:10.651Z,15.00
2022-10-17T06:04:00.716Z,15.00
2022-10-17T06:06:52.493Z,15.00
2022-10-17T06:12:35.605Z,15.00
2022-10-17T06:15:27.392Z,14.90
2022-10-17T06:18:20.508Z,15.00
2022-10-17T06:21:15.132Z,15.00
2022-10-17T06:24:08.297Z,15.00
2022-10-17T06:27:01.414Z,15.00
2022-10-17T06:29:53.138Z,15.10
2022-10-17T06:32:45.365Z,15.00
2022-10-17T06:35:36.631Z,15.10
2022-10-17T06:38:28.252Z,15.10
2022-10-17T06:41:21.194Z,15.20
2022-10-17T06:44:14.779Z,15.30
2022-10-17T06:47:11.303Z,15.40
2022-10-17T06:50:02.970Z,15.40
2022-10-17T06:52:56.125Z,15.40
2022-10-17T06:56:06.434Z,15.50
2022-10-17T07:01:56.340Z,15.50
2022-10-17T07:04:49.298Z,15.60
2022-10-17T07:07:43.149Z,15.70
2022-10-17T07:10:34.818Z,15.70
2022-10-17T07:13:26.044Z,15.70
2022-10-17T07:16:18.463Z,15.80
2022-10-17T07:19:11.226Z,15.80
2022-10-17T07:22:04.081Z,15.90
2022-10-17T07:24:56.469Z,15.90
2022-10-17T07:27:53.513Z,15.90
2022-10-17T07:30:54.479Z,16.00
2022-10-17T07:36:38.264Z,16.10
2022-10-17T07:39:31.632Z,16.20
2022-10-17T07:42:22.894Z,16.20
2022-10-17T07:45:15.752Z,16.30
2022-10-17T07:48:08.501Z,16.30
2022-10-17T07:51:08.978Z,16.40
2022-10-17T07:54:03.579Z,16.40
2022-10-17T07:56:55.123Z,16.40
2022-10-17T07:59:47.982Z,16.50
2022-10-17T08:02:39.691Z,16.60
2022-10-17T08:05:31.650Z,16.70
2022-10-17T08:08:23.066Z,16.90
2022-10-17T08:11:16.485Z,17.00
2022-10-17T08:14:08.380Z,17.10
2022-10-17T08:16:59.783Z,17.20
2022-10-17T08:19:50.983Z,17.30
2022-10-17T08:22:41.965Z,17.40
2022-10-17T08:25:33.760Z,17.40
2022-10-17T08:28:25.310Z,17.50
2022-10-17T08:31:19.117Z,17.50
2022-10-17T08:34:10.270Z,17.70
2022-10-17T08:37:01.552Z,17.70
2022-10-17T08:39:52.530Z,17.80
2022-10-17T08:42:57.395Z,17.80
2022-10-17T08:45:52.290Z,17.90
2022-10-17T08:48:46.725Z,18.00
2022-10-17T08:51:40.908Z,18.10
2022-10-17T08:54:36.786Z,18.10
2022-10-17T08:57:29.142Z,18.10
2022-10-17T09:00:23.036Z,18.10
2022-10-17T09:03:24.905Z,18.20
2022-10-17T09:06:30.207Z,18.30
2022-10-17T09:09:29.590Z,18.30
2022-10-17T09:12:26.152Z,18.30
2022-10-17T09:15:43.537Z,18.40
2022-10-17T09:18:44.110Z,18.40
2022-10-17T09:21:42.626Z,18.40
2022-10-17T09:27:26.088Z,18.60
2022-10-17T09:30:51.031Z,18.70
2022-10-17T09:33:53.317Z,18.80
2022-10-17T09:36:26.612Z,18.90
2022-10-17T09:39:20.159Z,19.00
2022-10-17T09:42:15.933Z,19.10
2022-10-17T09:45:15.474Z,19.20
2022-10-17T09:48:11.339Z,19.30
2022-10-17T09:51:14.884Z,19.30
2022-10-17T09:53:58.993Z,19.30
2022-10-17T09:57:05.880Z,19.30
2022-10-17T10:00:02.243Z,19.30
2022-10-17T10:02:55.348Z,19.30
2022-10-17T10:06:00.476Z,19.40
2022-10-17T10:08:55.054Z,19.50
2022-10-17T10:11:51.389Z,19.60
2022-10-17T10:14:45.168Z,19.60
2022-10-17T10:17:42.746Z,19.60
2022-10-17T10:20:37.015Z,19.60
2022-10-17T10:23:40.511Z,19.70
2022-10-17T10:26:36.042Z,19.70
2022-10-17T10:29:32.208Z,19.80
2022-10-17T10:32:25.961Z,19.60
2022-10-17T10:35:38.714Z,19.70
2022-10-17T10:38:30.087Z,19.80
2022-10-17T10:44:17.125Z,20.00
2022-10-17T10:47:18.720Z,20.00
2022-10-17T10:50:21.988Z,20.20
2022-10-17T10:53:20.017Z,20.20
2022-10-17T10:56:14.797Z,20.40
2022-10-17T10:59:10.191Z,20.50
2022-10-17T11:02:05.181Z,20.70
2022-10-17T11:04:59.516Z,20.80
2022-10-17T11:10:45.492Z,21.10
2022-10-17T11:20:07.538Z,21.50
2022-10-17T11:23:06.699Z,21.60
2022-10-17T11:26:01.755Z,21.70
2022-10-17T11:28:53.664Z,21.80
2022-10-17T11:31:48.491Z,21.90
2022-10-17T11:38:19.170Z,21.90
2022-10-17T11:44:35.092Z,22.10
2022-10-17T11:48:08.391Z,22.20
2022-10-17T11:54:34.057Z,22.40
2022-10-17T11:57:54.196Z,22.50
2022-10-17T12:01:00.559Z,22.60
2022-10-17T12:04:14.697Z,22.70
2022-10-17T12:07:12.280Z,22.70
2022-10-17T12:10:07.332Z,22.70
2022-10-17T12:12:58.790Z,22.70
2022-10-17T12:15:50.777Z,22.90
2022-10-17T12:18:42.305Z,23.00
2022-10-17T12:21:45.092Z,23.20
2022-10-17T12:24:42.777Z,23.30
2022-10-17T12:27:46.062Z,23.40
2022-10-17T12:30:37.953Z,23.50
2022-10-17T12:33:34.554Z,23.60
2022-10-17T12:36:53.738Z,23.70
2022-10-17T12:39:45.432Z,23.80
2022-10-17T12:42:56.586Z,23.90
2022-10-17T12:45:49.944Z,23.90
2022-10-17T12:56:10.472Z,24.00
2022-10-17T12:59:10.755Z,24.10
2022-10-17T13:02:08.203Z,24.10
2022-10-17T13:05:00.671Z,24.10
2022-10-17T13:07:53.150Z,24.10
2022-10-17T13:10:50.217Z,24.10
2022-10-17T13:13:42.890Z,24.00
2022-10-17T13:16:43.998Z,24.10
2022-10-17T13:19:42.318Z,24.10
2022-10-17T13:22:34.478Z,24.20
2022-10-17T13:25:27.049Z,24.30
2022-10-17T13:28:18.098Z,24.30
2022-10-17T13:31:10.834Z,24.30
2022-10-17T13:34:03.735Z,24.20
2022-10-17T13:36:56.969Z,24.10
2022-10-17T13:39:55.794Z,24.10
2022-10-17T13:42:43.620Z,24.10
2022-10-17T13:45:37.824Z,24.20
2022-10-17T13:48:32.748Z,24.20
2022-10-17T13:51:24.617Z,24.30
2022-10-17T13:54:38.192Z,24.20
2022-10-17T13:57:39.375Z,24.30
2022-10-17T14:00:31.096Z,24.30
2022-10-17T14:03:24.205Z,24.40
2022-10-17T14:06:19.550Z,24.30
2022-10-17T14:09:19.433Z,24.30
2022-10-17T14:12:13.462Z,24.30
2022-10-17T14:15:10.847Z,24.30
2022-10-17T14:18:07.312Z,24.30
2022-10-17T14:23:49.554Z,24.50
2022-10-17T14:26:49.188Z,24.40
2022-10-17T14:29:54.528Z,24.20
2022-10-17T14:32:46.218Z,24.20
2022-10-17T14:35:41.944Z,24.20
2022-10-17T14:38:33.247Z,24.20
2022-10-17T14:41:43.991Z,24.20
2022-10-17T14:44:27.374Z,24.20
2022-10-17T14:47:42.256Z,24.10
2022-10-17T14:50:26.117Z,24.10
2022-10-17T14:53:23.348Z,24.00
2022-10-17T14:56:26.213Z,23.90
2022-10-17T14:59:35.542Z,24.00
2022-10-17T15:04:54.255Z,24.00
2022-10-17T15:07:45.706Z,23.80
2022-10-17T15:10:40.215Z,23.80
2022-10-17T15:13:36.678Z,23.80
2022-10-17T15:16:26.044Z,23.70
2022-10-17T15:19:16.900Z,23.80
2022-10-17T15:22:07.954Z,23.90
2022-10-17T15:24:58.892Z,23.90
2022-10-17T15:27:49.884Z,23.80
2022-10-17T15:30:41.411Z,23.90
2022-10-17T15:33:32.732Z,24.10
2022-10-17T15:36:28.624Z,24.10
2022-10-17T15:39:19.706Z,24.10
2022-10-17T15:42:13.904Z,23.80
2022-10-17T15:48:02.716Z,23.30
2022-10-17T15:50:54.013Z,23.30
2022-10-17T15:53:45.480Z,23.20
2022-10-17T15:56:39.913Z,23.20
2022-10-17T15:59:34.197Z,23.20
2022-10-17T16:02:26.130Z,23.10
2022-10-17T16:05:19.034Z,23.00
2022-10-17T16:08:10.369Z,22.90
2022-10-17T16:11:01.798Z,22.90
2022-10-17T16:13:57.846Z,22.80
2022-10-17T16:16:48.973Z,22.80
2022-10-17T16:19:40.243Z,22.80
2022-10-17T16:22:35.857Z,22.70
2022-10-17T16:25:29.530Z,22.70
2022-10-17T16:28:20.990Z,22.60
2022-10-17T16:31:23.708Z,22.50
2022-10-17T16:34:16.040Z,22.50
2022-10-17T16:37:07.394Z,22.40
2022-10-17T16:39:58.565Z,22.40
2022-10-17T16:42:50.011Z,22.40
2022-10-17T16:45:41.533Z,22.40
2022-10-17T16:48:32.755Z,22.30
2022-10-17T16:51:24.546Z,22.30
2022-10-17T16:54:15.737Z,22.20
2022-10-17T16:57:07.652Z,22.20
2022-10-17T16:59:59.688Z,22.10
2022-10-17T17:02:51.361Z,22.20
2022-10-17T17:05:42.728Z,22.10
2022-10-17T17:08:34.424Z,22.10
2022-10-17T17:11:28.338Z,22.10
2022-10-17T17:14:19.606Z,22.10
2022-10-17T17:17:19.462Z,22.20
2022-10-17T17:20:04.194Z,22.10
2022-10-17T17:22:55.353Z,22.00
2022-10-17T17:25:46.705Z,22.00
2022-10-17T17:28:38.754Z,22.00
2022-10-17T17:31:33.029Z,21.90
2022-10-17T17:34:23.964Z,21.90
2022-10-17T17:37:15.537Z,21.80
2022-10-17T17:40:10.306Z,21.80
2022-10-17T17:45:52.570Z,21.70
2022-10-17T17:48:44.858Z,21.60
2022-10-17T17:51:37.572Z,21.60
2022-10-17T17:54:29.183Z,21.60
2022-10-17T17:57:20.255Z,21.50
2022-10-17T18:02:53.688Z,21.50
2022-10-17T18:05:44.700Z,21.50
2022-10-17T18:08:36.629Z,21.50
2022-10-17T18:11:28.745Z,21.40
2022-10-17T18:16:59.152Z,21.30
2022-10-17T18:19:50.118Z,21.20
2022-10-17T18:22:41.393Z,21.20
2022-10-17T18:25:32.333Z,21.20
2022-10-17T18:28:23.655Z,21.10
2022-10-17T18:31:18.456Z,21.00
2022-10-17T18:36:48.812Z,20.90
2022-10-17T18:42:18.313Z,21.00
2022-10-17T18:47:53.838Z,20.90
2022-10-17T18:50:45.030Z,21.00
2022-10-17T18:53:38.267Z,21.00
2022-10-17T18:56:29.380Z,20.90
2022-10-17T19:01:58.804Z,20.90
2022-10-17T19:07:41.247Z,20.80
2022-10-17T19:10:33.258Z,20.80
2022-10-17T19:13:24.151Z,20.80
2022-10-17T19:18:54.131Z,20.70
2022-10-17T19:21:45.542Z,20.60
2022-10-17T19:24:36.458Z,20.50
2022-10-17T19:27:27.929Z,20.50
2022-10-17T19:30:19.874Z,20.70
2022-10-17T19:33:11.107Z,20.70
2022-10-17T19:36:04.792Z,20.60
2022-10-17T19:38:58.394Z,20.50
2022-10-17T19:47:09.367Z,20.30
2022-10-17T19:50:00.300Z,20.20
2022-10-17T19:52:52.154Z,20.10
2022-10-17T19:55:43.410Z,20.00
2022-10-17T19:58:36.284Z,20.00
2022-10-17T20:01:28.825Z,20.10
2022-10-17T20:07:00.279Z,20.00
2022-10-17T20:09:51.357Z,20.00
2022-10-17T20:12:42.610Z,20.00
2022-10-17T20:15:33.929Z,19.90
2022-10-17T20:18:25.242Z,19.90
2022-10-17T20:21:19.493Z,19.90
2022-10-17T20:24:13.223Z,19.90
2022-10-17T20:29:42.691Z,19.80
2022-10-17T20:32:39.635Z,19.80
2022-10-17T20:35:30.327Z,19.70
2022-10-17T20:38:22.050Z,19.70
2022-10-17T20:41:13.209Z,19.70
2022-10-17T20:44:06.998Z,19.60
2022-10-17T20:47:02.068Z,19.60
2022-10-17T20:49:50.751Z,19.60
2022-10-17T20:52:41.946Z,19.60
2022-10-17T20:55:33.423Z,19.60
2022-10-17T20:58:24.757Z,19.60
2022-10-17T21:01:16.070Z,19.70
2022-10-17T21:04:33.385Z,19.60
2022-10-17T21:07:00.785Z,19.50
2022-10-17T21:09:51.983Z,19.50
2022-10-17T21:12:53.585Z,19.50
2022-10-17T21:18:13.762Z,19.40
2022-10-17T21:21:11.424Z,19.40
2022-10-17T21:24:05.064Z,19.20
2022-10-17T21:26:57.707Z,19.20
2022-10-17T21:29:50.011Z,19.20
2022-10-17T21:32:55.339Z,19.30
2022-10-17T21:38:12.993Z,19.30
2022-10-17T21:41:04.340Z,19.40
2022-10-17T21:43:57.378Z,19.30
2022-10-17T21:46:49.178Z,19.30
2022-10-17T21:52:23.142Z,19.30
2022-10-17T21:55:14.286Z,19.20
2022-10-17T21:58:05.412Z,19.30
2022-10-17T22:00:58.135Z,19.20
2022-10-17T22:03:50.518Z,19.20
2022-10-17T22:06:43.034Z,19.00
2022-10-17T22:12:13.333Z,19.00
2022-10-17T22:15:05.136Z,19.00
2022-10-17T22:17:56.406Z,18.90
2022-10-17T22:23:27.070Z,19.00
2022-10-17T22:26:18.284Z,19.00
2022-10-17T22:29:10.704Z,19.00
2022-10-17T22:32:01.555Z,19.00
2022-10-17T22:37:31.111Z,19.00
2022-10-17T22:43:00.251Z,18.90
2022-10-17T22:45:55.534Z,18.70
2022-10-17T22:48:47.043Z,18.60
2022-10-17T22:51:38.316Z,18.60
2022-10-17T22:54:29.266Z,18.60
2022-10-17T22:57:21.163Z,18.60
2022-10-17T23:00:14.776Z,18.50
2022-10-17T23:03:06.250Z,18.40
2022-10-17T23:05:57.649Z,18.50
2022-10-17T23:08:48.656Z,18.50
2022-10-17T23:11:39.498Z,18.40
2022-10-17T23:14:30.796Z,18.30
2022-10-17T23:17:21.625Z,18.20
2022-10-17T23:22:52.349Z,18.10
2022-10-17T23:25:43.712Z,18.00
2022-10-17T23:28:35.785Z,18.00
2022-10-17T23:31:27.430Z,18.00
2022-10-17T23:36:59.080Z,17.90
2022-10-17T23:39:50.030Z,18.00
2022-10-17T23:42:41.234Z,18.00
2022-10-17T23:45:35.986Z,18.10
2022-10-17T23:48:25.007Z,18.10
2022-10-17T23:51:16.223Z,18.10
2022-10-17T23:54:07.007Z,18.10
2022-10-17T23:56:57.907Z,18.10
